createdAt,value
2018-06-20T00:00:29.732Z,58.50
2018-06-20T00:05:26.247Z,58.50
2018-06-20T00:07:54.579Z,58.20
2018-06-20T00:10:24.114Z,58.40
2018-06-20T00:12:52.471Z,58.40
2018-06-20T00:15:20.794Z,58.50
2018-06-20T00:17:49.144Z,57.80
2018-06-20T00:20:17.524Z,58.00
2018-06-20T00:22:45.922Z,58.20
2018-06-20T00:25:14.275Z,57.80
2018-06-20T00:27:42.614Z,57.60
2018-06-20T00:30:11.080Z,58.20
2018-06-20T00:32:39.513Z,58.10
2018-06-20T00:35:07.842Z,58.10
2018-06-20T00:37:36.154Z,58.10
2018-06-20T00:40:04.504Z,58.10
2018-06-20T00:42:32.878Z,58.00
2018-06-20T00:45:01.213Z,58.00
2018-06-20T00:47:29.548Z,57.60
2018-06-20T00:52:26.211Z,57.90
2018-06-20T00:54:54.649Z,57.90
2018-06-20T00:57:22.954Z,57.90
2018-06-20T00:59:51.321Z,57.80
2018-06-20T01:02:19.673Z,57.80
2018-06-20T01:04:48.044Z,57.80
2018-06-20T01:07:16.389Z,57.80
2018-06-20T01:09:44.830Z,57.70
2018-06-20T01:12:13.185Z,57.70
2018-06-20T01:14:41.519Z,58.30
2018-06-20T01:17:10.397Z,57.60
2018-06-20T01:22:07.464Z,57.50
2018-06-20T01:29:32.632Z,57.50
2018-06-20T01:32:01.086Z,57.40
2018-06-20T01:34:29.484Z,57.40
2018-06-20T01:36:57.828Z,57.40
2018-06-20T01:39:26.212Z,57.30
2018-06-20T01:41:54.549Z,57.30
2018-06-20T01:44:22.890Z,57.30
2018-06-20T01:46:51.234Z,57.30
2018-06-20T01:49:19.627Z,57.30
2018-06-20T01:51:48.001Z,57.70
2018-06-20T01:54:16.346Z,58.60
2018-06-20T01:56:45.271Z,57.70
2018-06-20T01:59:13.656Z,57.90
2018-06-20T02:01:42.064Z,58.00
2018-06-20T02:04:10.553Z,57.50
2018-06-20T02:06:38.881Z,57.80
2018-06-20T02:09:07.758Z,57.20
2018-06-20T02:11:36.110Z,57.20
2018-06-20T02:14:04.530Z,57.40
2018-06-20T02:16:32.860Z,57.80
2018-06-20T02:19:01.196Z,57.80
2018-06-20T02:21:29.564Z,57.90
2018-06-20T02:23:57.865Z,58.50
2018-06-20T02:28:54.234Z,58.70
2018-06-20T02:31:22.544Z,58.60
2018-06-20T02:33:50.911Z,58.90
2018-06-20T02:36:24.520Z,59.10
2018-06-20T02:38:52.878Z,59.30
2018-06-20T02:41:21.181Z,59.30
2018-06-20T02:43:49.960Z,59.10
2018-06-20T02:46:18.318Z,59.20
2018-06-20T02:48:46.756Z,59.20
2018-06-20T02:51:15.094Z,59.20
2018-06-20T02:53:43.452Z,59.60
2018-06-20T02:56:11.842Z,59.80
2018-06-20T02:58:40.179Z,59.80
2018-06-20T03:01:08.530Z,59.70
2018-06-20T03:03:36.891Z,59.60
2018-06-20T03:06:05.272Z,59.60
2018-06-20T03:08:33.641Z,59.30
2018-06-20T03:11:01.978Z,58.90
2018-06-20T03:18:26.643Z,59.00
2018-06-20T03:20:54.997Z,58.90
2018-06-20T03:23:23.448Z,58.70
2018-06-20T03:25:52.360Z,58.60
2018-06-20T03:28:20.724Z,58.40
2018-06-20T03:30:49.078Z,58.50
2018-06-20T03:33:17.424Z,58.80
2018-06-20T03:35:45.754Z,58.70
2018-06-20T03:40:42.264Z,58.70
2018-06-20T03:43:10.646Z,58.50
2018-06-20T03:45:39.124Z,58.50
2018-06-20T03:48:07.441Z,58.20
2018-06-20T03:50:35.818Z,58.20
2018-06-20T03:53:04.164Z,58.20
2018-06-20T03:55:32.526Z,58.20
2018-06-20T03:58:00.863Z,58.10
2018-06-20T04:05:28.012Z,58.00
2018-06-20T04:07:56.348Z,58.00
2018-06-20T04:10:24.856Z,58.00
2018-06-20T04:12:53.934Z,58.00
2018-06-20T04:15:22.298Z,58.50
2018-06-20T04:17:50.656Z,58.80
2018-06-20T04:22:47.053Z,59.00
2018-06-20T04:25:15.437Z,58.90
2018-06-20T04:27:43.756Z,59.10
2018-06-20T04:30:12.117Z,59.20
2018-06-20T04:32:40.452Z,59.40
2018-06-20T04:35:08.956Z,59.60
2018-06-20T04:37:37.377Z,59.90
2018-06-20T04:45:02.264Z,60.70
2018-06-20T04:47:31.165Z,60.80
2018-06-20T04:50:00.275Z,60.90
2018-06-20T04:52:28.709Z,61.00
2018-06-20T04:55:03.897Z,60.90
2018-06-20T04:57:32.239Z,61.00
2018-06-20T05:00:00.598Z,60.30
2018-06-20T05:02:28.939Z,60.20
2018-06-20T05:04:57.335Z,60.50
2018-06-20T05:07:25.783Z,61.00
2018-06-20T05:09:54.118Z,61.30
2018-06-20T05:12:22.478Z,61.70
2018-06-20T05:14:50.826Z,61.90
2018-06-20T05:17:19.375Z,61.90
2018-06-20T05:19:47.733Z,61.90
2018-06-20T05:22:16.060Z,61.80
2018-06-20T05:24:44.533Z,61.70
2018-06-20T05:27:12.963Z,61.80
2018-06-20T05:29:41.273Z,61.90
2018-06-20T05:32:09.625Z,62.10
2018-06-20T05:34:38.638Z,62.30
2018-06-20T05:37:07.026Z,62.30
2018-06-20T05:39:35.395Z,62.40
2018-06-20T05:42:03.762Z,62.90
2018-06-20T05:44:32.154Z,62.20
2018-06-20T05:47:00.591Z,62.40
2018-06-20T05:51:57.149Z,62.50
2018-06-20T05:54:25.517Z,62.70
2018-06-20T05:56:53.925Z,62.90
2018-06-20T05:59:22.271Z,62.80
2018-06-20T06:01:50.721Z,62.70
2018-06-20T06:04:19.107Z,62.60
2018-06-20T06:06:47.469Z,62.60
2018-06-20T06:11:43.923Z,61.80
2018-06-20T06:16:40.375Z,61.00
2018-06-20T06:19:08.709Z,61.40
2018-06-20T06:21:37.210Z,61.30
2018-06-20T06:24:05.633Z,61.10
2018-06-20T06:26:33.961Z,60.90
2018-06-20T06:29:02.312Z,60.60
2018-06-20T06:31:30.660Z,59.90
2018-06-20T06:33:59.083Z,60.00
2018-06-20T06:36:27.488Z,60.70
2018-06-20T06:38:55.875Z,59.80
2018-06-20T06:41:24.350Z,59.90
2018-06-20T06:43:52.762Z,59.50
2018-06-20T06:46:21.068Z,59.50
2018-06-20T06:48:49.403Z,59.20
2018-06-20T06:51:17.752Z,58.90
2018-06-20T06:53:46.221Z,58.20
2018-06-20T06:56:14.536Z,58.00
2018-06-20T06:58:42.893Z,57.10
2018-06-20T07:01:11.237Z,56.60
2018-06-20T07:03:39.597Z,56.80
2018-06-20T07:06:08.054Z,55.30
2018-06-20T07:08:36.404Z,55.00
2018-06-20T07:11:04.759Z,55.00
2018-06-20T07:13:33.213Z,54.30
2018-06-20T07:16:01.623Z,53.70
2018-06-20T07:18:29.989Z,53.40
2018-06-20T07:23:26.540Z,52.90
2018-06-20T07:25:54.892Z,52.70
2018-06-20T07:28:23.313Z,52.20
2018-06-20T07:30:51.667Z,51.70
2018-06-20T07:33:20.005Z,51.70
2018-06-20T07:35:48.512Z,50.40
2018-06-20T07:38:16.873Z,50.50
2018-06-20T07:40:45.201Z,50.10
2018-06-20T07:43:13.559Z,50.50
2018-06-20T07:45:42.441Z,49.50
2018-06-20T07:48:10.785Z,50.70
2018-06-20T07:50:39.111Z,50.30
2018-06-20T07:53:07.433Z,48.10
2018-06-20T07:55:35.861Z,48.00
2018-06-20T07:58:04.257Z,48.30
2018-06-20T08:00:38.128Z,47.10
2018-06-20T08:03:16.894Z,47.40
2018-06-20T08:05:50.991Z,46.80
2018-06-20T08:10:58.040Z,46.30
2018-06-20T08:13:31.713Z,46.90
2018-06-20T08:16:05.491Z,45.60
2018-06-20T08:18:39.137Z,46.00
2018-06-20T08:21:07.563Z,46.10
2018-06-20T08:23:36.177Z,45.30
2018-06-20T08:26:04.641Z,44.60
2018-06-20T08:28:32.986Z,44.20
2018-06-20T08:31:01.337Z,44.70
2018-06-20T08:33:29.765Z,45.40
2018-06-20T08:35:58.122Z,45.10
2018-06-20T08:38:26.468Z,44.50
2018-06-20T08:40:54.797Z,43.60
2018-06-20T08:43:23.128Z,44.10
2018-06-20T08:45:52.061Z,45.10
2018-06-20T08:48:20.428Z,42.20
2018-06-20T08:50:48.780Z,41.90
2018-06-20T08:53:17.127Z,43.20
2018-06-20T08:55:45.628Z,43.10
2018-06-20T08:58:14.032Z,42.60
2018-06-20T09:00:47.536Z,43.50
2018-06-20T09:03:15.876Z,43.20
2018-06-20T09:05:49.438Z,42.80
2018-06-20T09:08:23.050Z,41.30
2018-06-20T09:10:56.655Z,42.10
2018-06-20T09:13:30.375Z,41.10
2018-06-20T09:16:04.441Z,41.50
2018-06-20T09:18:38.304Z,42.10
2018-06-20T09:21:06.674Z,41.90
2018-06-20T09:23:34.996Z,41.80
2018-06-20T09:26:05.899Z,40.80
2018-06-20T09:28:34.305Z,40.60
2018-06-20T09:31:02.654Z,39.40
2018-06-20T09:33:30.995Z,40.60
2018-06-20T09:35:59.896Z,40.00
2018-06-20T09:40:56.304Z,39.70
2018-06-20T09:43:28.253Z,41.40
2018-06-20T09:45:56.608Z,40.20
2018-06-20T09:48:24.972Z,39.70
2018-06-20T09:50:58.302Z,39.20
2018-06-20T09:53:27.054Z,38.60
2018-06-20T09:55:55.526Z,38.70
2018-06-20T09:58:23.858Z,40.00
2018-06-20T10:00:57.388Z,39.10
2018-06-20T10:03:31.024Z,38.20
2018-06-20T10:06:04.648Z,40.00
2018-06-20T10:08:38.346Z,39.40
2018-06-20T10:11:12.074Z,39.30
2018-06-20T10:13:44.945Z,37.70
2018-06-20T10:16:13.966Z,36.80
2018-06-20T10:18:42.330Z,37.70
2018-06-20T10:21:17.519Z,37.30
2018-06-20T10:23:45.844Z,36.70
2018-06-20T10:26:14.184Z,36.30
2018-06-20T10:28:42.534Z,37.30
2018-06-20T10:31:10.930Z,35.80
2018-06-20T10:33:39.290Z,36.70
2018-06-20T10:36:07.699Z,37.30
2018-06-20T10:38:36.048Z,36.20
2018-06-20T10:41:04.396Z,37.10
2018-06-20T10:43:32.730Z,36.20
2018-06-20T10:46:06.475Z,34.30
2018-06-20T10:48:34.868Z,34.20
2018-06-20T10:51:03.380Z,35.00
2018-06-20T10:53:31.748Z,34.20
2018-06-20T10:56:01.208Z,34.30
2018-06-20T10:58:34.835Z,35.00
2018-06-20T11:01:08.586Z,34.40
2018-06-20T11:03:42.341Z,35.10
2018-06-20T11:06:16.026Z,35.00
2018-06-20T11:08:49.702Z,35.20
2018-06-20T11:11:23.345Z,34.70
2018-06-20T11:13:51.800Z,35.80
2018-06-20T11:16:20.170Z,35.40
2018-06-20T11:18:51.430Z,34.30
2018-06-20T11:21:19.761Z,33.60
2018-06-20T11:23:48.148Z,34.20
2018-06-20T11:26:16.462Z,33.50
2018-06-20T11:28:44.828Z,32.10
2018-06-20T11:31:13.193Z,32.80
2018-06-20T11:33:41.500Z,32.30
2018-06-20T11:36:09.853Z,34.00
2018-06-20T11:38:38.203Z,32.10
2018-06-20T11:41:06.635Z,32.20
2018-06-20T11:43:35.065Z,32.80
2018-06-20T11:48:37.402Z,32.40
2018-06-20T11:51:06.717Z,32.80
2018-06-20T11:53:35.118Z,30.90
2018-06-20T11:56:03.477Z,30.80
2018-06-20T11:58:36.998Z,31.40
2018-06-20T12:01:10.796Z,31.30
2018-06-20T12:03:44.464Z,29.60
2018-06-20T12:06:18.147Z,31.00
2018-06-20T12:08:51.824Z,31.50
2018-06-20T12:11:25.609Z,31.30
2018-06-20T12:13:59.340Z,31.20
2018-06-20T12:16:28.137Z,31.20
2018-06-20T12:19:01.904Z,31.10
2018-06-20T12:21:35.547Z,30.00
2018-06-20T12:24:09.229Z,32.10
2018-06-20T12:26:43.002Z,29.60
2018-06-20T12:29:16.756Z,28.90
2018-06-20T12:31:50.483Z,28.50
2018-06-20T12:34:24.269Z,29.20
2018-06-20T12:36:57.912Z,28.60
2018-06-20T12:39:25.547Z,28.90
2018-06-20T12:41:59.325Z,28.20
2018-06-20T12:47:10.331Z,28.30
2018-06-20T12:49:42.095Z,28.20
2018-06-20T12:52:10.543Z,29.10
2018-06-20T12:54:38.930Z,28.60
2018-06-20T12:57:07.308Z,28.70
2018-06-20T12:59:35.703Z,28.40
2018-06-20T13:02:04.141Z,28.20
2018-06-20T13:04:32.510Z,28.40
2018-06-20T13:07:03.821Z,28.10
2018-06-20T13:09:32.200Z,27.30
2018-06-20T13:12:00.659Z,27.30
2018-06-20T13:14:29.076Z,28.10
2018-06-20T13:16:57.454Z,27.50
2018-06-20T13:19:25.806Z,28.10
2018-06-20T13:21:54.177Z,27.70
2018-06-20T13:24:22.547Z,27.80
2018-06-20T13:26:51.047Z,26.90
2018-06-20T13:29:19.361Z,27.60
2018-06-20T13:31:53.057Z,27.60
2018-06-20T13:34:26.726Z,26.80
2018-06-20T13:37:00.324Z,27.10
2018-06-20T13:39:34.079Z,27.10
2018-06-20T13:42:08.123Z,27.50
2018-06-20T13:44:36.493Z,26.70
2018-06-20T13:47:10.370Z,27.50
2018-06-20T13:49:38.748Z,27.50
2018-06-20T13:52:07.206Z,28.10
2018-06-20T13:54:35.482Z,27.60
2018-06-20T13:57:03.906Z,27.00
2018-06-20T13:59:32.366Z,26.70
2018-06-20T14:02:00.783Z,26.80
2018-06-20T14:04:29.187Z,26.50
2018-06-20T14:06:57.536Z,26.40
2018-06-20T14:09:26.594Z,27.40
2018-06-20T14:11:54.964Z,26.90
2018-06-20T14:14:23.415Z,28.00
2018-06-20T14:19:24.305Z,26.70
2018-06-20T14:21:52.784Z,27.40
2018-06-20T14:24:21.115Z,27.30
2018-06-20T14:26:50.143Z,26.10
2018-06-20T14:29:18.484Z,26.80
2018-06-20T14:31:52.380Z,27.20
2018-06-20T14:34:26.125Z,26.90
2018-06-20T14:39:33.891Z,28.10
2018-06-20T14:42:07.650Z,28.80
2018-06-20T14:44:35.983Z,28.30
2018-06-20T14:47:04.429Z,28.90
2018-06-20T14:49:32.903Z,28.40
2018-06-20T15:33:34.219Z,28.80
2018-06-20T15:36:07.862Z,28.10
2018-06-20T15:38:36.592Z,28.00
2018-06-20T15:41:04.968Z,27.80
2018-06-20T15:43:33.372Z,27.50
2018-06-20T15:46:05.149Z,27.30
2018-06-20T15:48:34.017Z,26.40
2018-06-20T15:51:02.580Z,26.80
2018-06-20T15:53:30.928Z,25.50
2018-06-20T15:58:28.049Z,26.60
2018-06-20T16:00:56.398Z,26.10
2018-06-20T16:03:24.801Z,25.80
2018-06-20T16:05:53.163Z,26.10
2018-06-20T16:08:21.516Z,26.40
2018-06-20T16:10:49.911Z,25.00
2018-06-20T16:13:18.276Z,25.50
2018-06-20T16:15:46.659Z,25.60
2018-06-20T16:18:15.041Z,25.30
2018-06-20T16:20:48.870Z,25.40
2018-06-20T16:23:22.480Z,25.20
2018-06-20T16:25:56.398Z,25.00
2018-06-20T16:28:30.105Z,25.30
2018-06-20T16:30:58.575Z,25.10
2018-06-20T16:33:26.934Z,24.60
2018-06-20T16:35:55.269Z,25.20
2018-06-20T16:38:23.642Z,26.00
2018-06-20T16:40:51.990Z,26.00
2018-06-20T16:43:20.358Z,25.50
2018-06-20T16:45:48.788Z,25.80
2018-06-20T16:48:17.109Z,26.70
2018-06-20T16:50:46.040Z,26.30
2018-06-20T16:53:14.600Z,26.20
2018-06-20T16:55:43.039Z,27.00
2018-06-20T16:58:11.416Z,26.20
2018-06-20T17:00:39.870Z,26.80
2018-06-20T17:03:08.281Z,26.50
2018-06-20T17:05:36.761Z,27.00
2018-06-20T17:08:05.160Z,26.40
2018-06-20T17:10:33.556Z,26.20
2018-06-20T17:13:07.390Z,26.90
2018-06-20T17:15:41.270Z,27.20
2018-06-20T17:18:14.928Z,27.20
2018-06-20T17:20:48.617Z,27.80
2018-06-20T17:23:22.376Z,28.50
2018-06-20T17:25:50.767Z,28.50
2018-06-20T17:28:19.218Z,28.40
2018-06-20T17:30:47.745Z,28.40
2018-06-20T17:33:18.056Z,28.40
2018-06-20T17:35:49.998Z,28.50
2018-06-20T17:38:18.753Z,28.60
2018-06-20T17:40:47.237Z,28.60
2018-06-20T17:43:15.606Z,28.70
2018-06-20T17:45:45.151Z,28.70
2018-06-20T17:48:14.152Z,28.60
2018-06-20T17:50:42.500Z,28.40
2018-06-20T17:55:39.103Z,29.40
2018-06-20T17:58:08.196Z,30.60
2018-06-20T18:00:41.926Z,31.00
2018-06-20T18:03:10.322Z,31.50
2018-06-20T18:05:44.707Z,32.40
2018-06-20T18:08:18.363Z,31.90
2018-06-20T18:10:52.045Z,32.90
2018-06-20T18:13:24.628Z,33.30
2018-06-20T18:18:28.330Z,34.10
2018-06-20T18:20:56.914Z,34.30
2018-06-20T18:23:25.245Z,34.50
2018-06-20T18:25:55.765Z,34.90
2018-06-20T18:28:26.544Z,35.30
2018-06-20T18:30:54.872Z,35.50
2018-06-20T18:33:23.217Z,36.20
2018-06-20T18:35:51.597Z,36.90
2018-06-20T18:38:19.942Z,36.90
2018-06-20T18:40:48.856Z,36.80
2018-06-20T18:43:17.214Z,36.70
2018-06-20T18:45:45.567Z,36.60
2018-06-20T18:48:19.284Z,36.90
2018-06-20T18:50:47.628Z,36.40
2018-06-20T18:53:16.353Z,36.40
2018-06-20T18:55:44.693Z,36.40
2018-06-20T18:58:19.201Z,36.50
2018-06-20T19:00:53.010Z,36.80
2018-06-20T19:03:26.733Z,37.10
2018-06-20T19:06:00.541Z,37.30
2018-06-20T19:08:34.797Z,37.70
2018-06-20T19:11:03.203Z,38.40
2018-06-20T19:13:31.678Z,38.40
2018-06-20T19:16:00.057Z,38.40
2018-06-20T19:18:28.812Z,39.30
2018-06-20T19:21:01.784Z,38.50
2018-06-20T19:23:30.277Z,38.90
2018-06-20T19:25:58.793Z,39.00
2018-06-20T19:28:27.165Z,38.80
2018-06-20T19:30:55.614Z,39.00
2018-06-20T19:33:24.733Z,38.90
2018-06-20T19:35:53.291Z,38.90
2018-06-20T19:38:21.688Z,39.30
2018-06-20T19:40:50.072Z,39.20
2018-06-20T19:43:18.429Z,39.90
2018-06-20T19:45:47.648Z,39.30
2018-06-20T19:48:16.037Z,38.80
2018-06-20T19:50:44.416Z,39.00
2018-06-20T19:53:12.786Z,39.40
2018-06-20T19:55:41.220Z,39.80
2018-06-20T19:58:09.588Z,40.00
2018-06-20T20:00:37.974Z,39.90
2018-06-20T20:03:06.684Z,40.00
2018-06-20T20:05:35.355Z,40.50
2018-06-20T20:08:03.987Z,42.30
2018-06-20T20:10:32.328Z,44.50
2018-06-20T20:13:00.750Z,45.00
2018-06-20T20:15:29.102Z,44.80
2018-06-20T20:17:57.588Z,44.60
2018-06-20T20:20:26.019Z,44.50
2018-06-20T20:25:22.436Z,42.80
2018-06-20T20:27:50.772Z,42.60
2018-06-20T20:30:19.129Z,42.30
2018-06-20T20:32:47.474Z,42.70
2018-06-20T20:35:15.806Z,44.20
2018-06-20T20:37:44.168Z,44.20
2018-06-20T20:40:12.530Z,44.10
2018-06-20T20:42:41.174Z,44.10
2018-06-20T20:45:09.514Z,44.00
2018-06-20T20:47:37.874Z,43.90
2018-06-20T20:50:06.436Z,43.80
2018-06-20T20:52:35.088Z,44.90
2018-06-20T20:55:03.472Z,45.30
2018-06-20T20:57:31.827Z,45.50
2018-06-20T21:00:00.198Z,44.40
2018-06-20T21:02:28.591Z,44.00
2018-06-20T21:04:56.941Z,43.90
2018-06-20T21:07:25.408Z,44.80
2018-06-20T21:09:53.756Z,45.10
2018-06-20T21:12:22.110Z,45.70
2018-06-20T21:14:50.458Z,46.50
2018-06-20T21:17:18.780Z,46.80
2018-06-20T21:19:47.131Z,46.90
2018-06-20T21:22:15.476Z,47.00
2018-06-20T21:27:12.457Z,47.30
2018-06-20T21:29:40.824Z,47.30
2018-06-20T21:32:09.175Z,47.40
2018-06-20T21:34:37.856Z,47.60
2018-06-20T21:37:06.220Z,47.80
2018-06-20T21:39:34.603Z,47.90
2018-06-20T21:42:03.016Z,48.00
2018-06-20T21:44:31.362Z,48.20
2018-06-20T21:46:59.788Z,48.30
2018-06-20T21:49:28.141Z,48.50
2018-06-20T21:51:56.503Z,48.60
2018-06-20T21:54:24.844Z,48.60
2018-06-20T21:56:53.291Z,48.60
2018-06-20T21:59:21.635Z,48.60
2018-06-20T22:01:50.008Z,48.70
2018-06-20T22:04:18.361Z,48.70
2018-06-20T22:06:46.719Z,48.80
2018-06-20T22:09:15.191Z,49.00
2018-06-20T22:11:43.618Z,50.10
2018-06-20T22:14:11.942Z,49.90
2018-06-20T22:16:40.328Z,51.30
2018-06-20T22:19:08.665Z,51.00
2018-06-20T22:21:37.027Z,51.10
2018-06-20T22:24:05.731Z,51.10
2018-06-20T22:26:34.088Z,51.30
2018-06-20T22:29:02.451Z,51.50
2018-06-20T22:31:30.784Z,51.50
2018-06-20T22:34:05.760Z,52.00
2018-06-20T22:36:34.119Z,51.90
2018-06-20T22:39:02.443Z,52.10
2018-06-20T22:41:30.813Z,52.30
2018-06-20T22:43:59.647Z,52.20
2018-06-20T22:48:56.102Z,51.80
2018-06-20T22:56:20.885Z,53.00
2018-06-20T22:58:49.231Z,53.20
2018-06-20T23:01:17.601Z,53.40
2018-06-20T23:03:46.077Z,53.30
2018-06-20T23:08:42.486Z,54.50
2018-06-20T23:11:10.848Z,54.90
2018-06-20T23:13:39.186Z,55.00
2018-06-20T23:16:07.524Z,54.80
2018-06-20T23:18:36.072Z,54.80
2018-06-20T23:21:04.417Z,55.50
2018-06-20T23:28:29.010Z,55.20
2018-06-20T23:30:57.369Z,56.20
2018-06-20T23:33:25.686Z,55.70
2018-06-20T23:38:22.284Z,56.50
2018-06-20T23:40:50.625Z,56.60
2018-06-20T23:43:19.000Z,56.80
2018-06-20T23:45:47.412Z,56.70
2018-06-20T23:48:15.747Z,56.70
2018-06-20T23:50:44.674Z,57.00
2018-06-20T23:53:13.696Z,56.90
2018-06-20T23:55:42.030Z,57.00
2018-06-20T23:58:10.387Z,57.10
